sensor_id;sensor_type;location;lat;lon;timestamp;P1;durP1;ratioP1;P2;durP2;ratioP2
51515;SDS011;37603;55.614;37.326;2023-03-14T00:04:12;3.0;;;1.2;;
51515;SDS011;37603;55.614;37.326;2023-03-14T00:10:11;2.5;;;1.0;;
51515;SDS011;37603;55.614;37.326;2023-03-14T00:16:11;4.1;;;1.4;;
51515;SDS011;37603;55.614;37.326;2023-03-14T00:22:07;3.0;;;1.0;;
51515;SDS011;37603;55.614;37.326;2023-03-14T00:28:06;2.2;;;1.1;;
51515;SDS011;37603;55.614;37.326;2023-03-14T00:34:04;3.6;;;1.1;;
51515;SDS011;37603;55.614;37.326;2023-03-14T00:40:03;3.5;;;1.0;;
51515;SDS011;37603;55.614;37.326;2023-03-14T00:46:02;4.0;;;1.3;;
51515;SDS011;37603;55.614;37.326;2023-03-14T00:52:00;2.8;;;0.9;;
51515;SDS011;37603;55.614;37.326;2023-03-14T00:57:58;2.6;;;1.0;;
51515;SDS011;37603;55.614;37.326;2023-03-14T01:03:57;2.9;;;1.1;;
51515;SDS011;37603;55.614;37.326;2023-03-14T01:09:56;2.4;;;1.3;;
51515;SDS011;37603;55.614;37.326;2023-03-14T01:15:54;3.1;;;1.1;;
51515;SDS011;37603;55.614;37.326;2023-03-14T01:21:53;3.8;;;1.1;;
51515;SDS011;37603;55.614;37.326;2023-03-14T01:27:51;2.8;;;1.7;;
51515;SDS011;37603;55.614;37.326;2023-03-14T01:33:50;2.3;;;1.4;;
51515;SDS011;37603;55.614;37.326;2023-03-14T01:39:48;3.1;;;1.6;;
51515;SDS011;37603;55.614;37.326;2023-03-14T01:51:47;3.2;;;1.6;;
51515;SDS011;37603;55.614;37.326;2023-03-14T01:57:46;2.6;;;1.5;;
51515;SDS011;37603;55.614;37.326;2023-03-14T02:03:44;2.8;;;1.5;;
51515;SDS011;37603;55.614;37.326;2023-03-14T02:09:41;3.1;;;1.6;;
51515;SDS011;37603;55.614;37.326;2023-03-14T02:15:41;2.7;;;1.5;;
51515;SDS011;37603;55.614;37.326;2023-03-14T02:21:42;4.3;;;1.4;;
51515;SDS011;37603;55.614;37.326;2023-03-14T02:27:37;4.8;;;1.9;;
51515;SDS011;37603;55.614;37.326;2023-03-14T02:33:36;6.3;;;1.7;;
51515;SDS011;37603;55.614;37.326;2023-03-14T02:39:35;7.1;;;4.2;;
51515;SDS011;37603;55.614;37.326;2023-03-14T02:45:42;4.7;;;1.8;;
51515;SDS011;37603;55.614;37.326;2023-03-14T02:51:31;3.2;;;1.7;;
51515;SDS011;37603;55.614;37.326;2023-03-14T02:57:30;5.0;;;2.0;;
51515;SDS011;37603;55.614;37.326;2023-03-14T03:03:28;3.6;;;2.3;;
51515;SDS011;37603;55.614;37.326;2023-03-14T03:09:27;4.9;;;2.1;;
51515;SDS011;37603;55.614;37.326;2023-03-14T03:15:26;6.1;;;2.1;;
51515;SDS011;37603;55.614;37.326;2023-03-14T03:21:24;6.3;;;2.6;;
51515;SDS011;37603;55.614;37.326;2023-03-14T03:27:23;5.0;;;2.1;;
51515;SDS011;37603;55.614;37.326;2023-03-14T03:33:22;2.8;;;1.8;;
51515;SDS011;37603;55.614;37.326;2023-03-14T03:39:20;4.0;;;2.4;;
51515;SDS011;37603;55.614;37.326;2023-03-14T03:45:19;7.5;;;6.2;;
51515;SDS011;37603;55.614;37.326;2023-03-14T03:51:17;8.2;;;5.9;;
51515;SDS011;37603;55.614;37.326;2023-03-14T03:57:16;8.7;;;6.2;;
51515;SDS011;37603;55.614;37.326;2023-03-14T04:03:15;10.0;;;6.4;;
51515;SDS011;37603;55.614;37.326;2023-03-14T04:09:14;8.4;;;6.8;;
51515;SDS011;37603;55.614;37.326;2023-03-14T04:15:12;9.2;;;7.2;;
51515;SDS011;37603;55.614;37.326;2023-03-14T04:21:11;5.5;;;3.0;;
51515;SDS011;37603;55.614;37.326;2023-03-14T04:27:09;5.3;;;3.2;;
51515;SDS011;37603;55.614;37.326;2023-03-14T04:33:08;8.1;;;6.3;;
51515;SDS011;37603;55.614;37.326;2023-03-14T04:39:07;5.2;;;2.7;;
51515;SDS011;37603;55.614;37.326;2023-03-14T04:45:06;5.1;;;2.8;;
51515;SDS011;37603;55.614;37.326;2023-03-14T04:51:04;8.5;;;6.3;;
51515;SDS011;37603;55.614;37.326;2023-03-14T04:57:03;6.1;;;2.6;;
51515;SDS011;37603;55.614;37.326;2023-03-14T05:03:02;8.0;;;6.0;;
51515;SDS011;37603;55.614;37.326;2023-03-14T05:14:59;6.7;;;5.6;;
51515;SDS011;37603;55.614;37.326;2023-03-14T05:20:58;6.3;;;5.2;;
51515;SDS011;37603;55.614;37.326;2023-03-14T05:26:56;7.9;;;4.9;;
51515;SDS011;37603;55.614;37.326;2023-03-14T05:32:55;6.0;;;4.6;;
51515;SDS011;37603;55.614;37.326;2023-03-14T05:38:54;5.8;;;4.6;;
51515;SDS011;37603;55.614;37.326;2023-03-14T05:44:52;6.1;;;4.6;;
51515;SDS011;37603;55.614;37.326;2023-03-14T05:50:54;5.8;;;4.2;;
51515;SDS011;37603;55.614;37.326;2023-03-14T05:56:50;6.0;;;4.1;;
51515;SDS011;37603;55.614;37.326;2023-03-14T06:02:48;6.3;;;4.0;;
51515;SDS011;37603;55.614;37.326;2023-03-14T06:08:47;6.9;;;4.0;;
51515;SDS011;37603;55.614;37.326;2023-03-14T06:20:45;5.1;;;3.7;;
51515;SDS011;37603;55.614;37.326;2023-03-14T06:26:43;5.5;;;3.8;;
51515;SDS011;37603;55.614;37.326;2023-03-14T06:38:41;6.0;;;3.7;;
51515;SDS011;37603;55.614;37.326;2023-03-14T06:44:39;4.6;;;3.7;;
51515;SDS011;37603;55.614;37.326;2023-03-14T06:50:38;6.3;;;3.7;;
51515;SDS011;37603;55.614;37.326;2023-03-14T06:56:37;5.7;;;3.7;;
51515;SDS011;37603;55.614;37.326;2023-03-14T07:02:36;7.2;;;3.7;;
51515;SDS011;37603;55.614;37.326;2023-03-14T07:08:34;4.0;;;3.3;;
51515;SDS011;37603;55.614;37.326;2023-03-14T07:14:33;4.2;;;3.3;;
51515;SDS011;37603;55.614;37.326;2023-03-14T07:20:32;6.2;;;3.4;;
51515;SDS011;37603;55.614;37.326;2023-03-14T07:26:31;6.0;;;3.5;;
51515;SDS011;37603;55.614;37.326;2023-03-14T07:32:29;5.7;;;3.2;;
51515;SDS011;37603;55.614;37.326;2023-03-14T07:38:28;4.9;;;3.3;;
51515;SDS011;37603;55.614;37.326;2023-03-14T07:44:27;5.2;;;3.2;;
51515;SDS011;37603;55.614;37.326;2023-03-14T07:50:26;4.7;;;3.3;;
51515;SDS011;37603;55.614;37.326;2023-03-14T07:56:25;5.2;;;3.1;;
51515;SDS011;37603;55.614;37.326;2023-03-14T08:02:23;5.3;;;3.5;;
51515;SDS011;37603;55.614;37.326;2023-03-14T08:08:22;6.3;;;3.6;;
51515;SDS011;37603;55.614;37.326;2023-03-14T08:14:21;6.2;;;3.4;;
51515;SDS011;37603;55.614;37.326;2023-03-14T08:20:20;4.6;;;3.4;;
51515;SDS011;37603;55.614;37.326;2023-03-14T08:26:19;5.5;;;3.7;;
51515;SDS011;37603;55.614;37.326;2023-03-14T08:32:17;5.7;;;3.4;;
51515;SDS011;37603;55.614;37.326;2023-03-14T08:38:16;6.7;;;3.6;;
51515;SDS011;37603;55.614;37.326;2023-03-14T08:44:15;5.3;;;3.2;;
51515;SDS011;37603;55.614;37.326;2023-03-14T08:50:15;6.6;;;3.2;;
51515;SDS011;37603;55.614;37.326;2023-03-14T08:56:13;5.6;;;3.3;;
51515;SDS011;37603;55.614;37.326;2023-03-14T09:08:10;5.2;;;3.2;;
51515;SDS011;37603;55.614;37.326;2023-03-14T09:14:10;10.5;;;3.6;;
51515;SDS011;37603;55.614;37.326;2023-03-14T09:20:09;5.6;;;3.3;;
51515;SDS011;37603;55.614;37.326;2023-03-14T09:26:07;7.1;;;3.3;;
51515;SDS011;37603;55.614;37.326;2023-03-14T09:32:06;7.3;;;3.6;;
51515;SDS011;37603;55.614;37.326;2023-03-14T09:38:05;4.8;;;3.2;;
51515;SDS011;37603;55.614;37.326;2023-03-14T09:44:04;7.3;;;3.6;;
51515;SDS011;37603;55.614;37.326;2023-03-14T09:50:03;5.8;;;3.4;;
51515;SDS011;37603;55.614;37.326;2023-03-14T09:56:01;5.9;;;3.9;;
51515;SDS011;37603;55.614;37.326;2023-03-14T10:02:01;5.5;;;4.1;;
51515;SDS011;37603;55.614;37.326;2023-03-14T10:14:04;5.2;;;3.5;;
51515;SDS011;37603;55.614;37.326;2023-03-14T10:19:57;3.8;;;3.3;;
51515;SDS011;37603;55.614;37.326;2023-03-14T10:26:00;4.9;;;3.5;;
51515;SDS011;37603;55.614;37.326;2023-03-14T10:31:57;6.4;;;3.4;;
51515;SDS011;37603;55.614;37.326;2023-03-14T10:37:55;5.9;;;3.4;;
51515;SDS011;37603;55.614;37.326;2023-03-14T10:43:54;4.6;;;3.2;;
51515;SDS011;37603;55.614;37.326;2023-03-14T10:49:52;6.3;;;3.5;;
51515;SDS011;37603;55.614;37.326;2023-03-14T10:55:50;5.1;;;3.5;;
51515;SDS011;37603;55.614;37.326;2023-03-14T11:01:51;4.5;;;3.1;;
51515;SDS011;37603;55.614;37.326;2023-03-14T11:07:48;5.3;;;3.2;;
51515;SDS011;37603;55.614;37.326;2023-03-14T11:13:51;4.1;;;3.0;;
51515;SDS011;37603;55.614;37.326;2023-03-14T11:19:49;5.0;;;3.5;;
51515;SDS011;37603;55.614;37.326;2023-03-14T11:25:47;5.1;;;3.5;;
51515;SDS011;37603;55.614;37.326;2023-03-14T11:31:44;4.3;;;3.0;;
51515;SDS011;37603;55.614;37.326;2023-03-14T11:37:45;5.0;;;3.2;;
51515;SDS011;37603;55.614;37.326;2023-03-14T11:43:42;5.8;;;3.2;;
51515;SDS011;37603;55.614;37.326;2023-03-14T11:49:42;5.1;;;3.4;;
51515;SDS011;37603;55.614;37.326;2023-03-14T11:55:40;5.2;;;3.0;;
51515;SDS011;37603;55.614;37.326;2023-03-14T12:01:43;4.3;;;2.8;;
51515;SDS011;37603;55.614;37.326;2023-03-14T12:07:39;6.0;;;3.3;;
51515;SDS011;37603;55.614;37.326;2023-03-14T12:13:37;4.4;;;3.2;;
51515;SDS011;37603;55.614;37.326;2023-03-14T12:19:36;4.0;;;3.2;;
51515;SDS011;37603;55.614;37.326;2023-03-14T12:25:34;5.3;;;3.2;;
51515;SDS011;37603;55.614;37.326;2023-03-14T12:31:37;6.3;;;3.5;;
51515;SDS011;37603;55.614;37.326;2023-03-14T12:37:33;7.1;;;3.6;;
51515;SDS011;37603;55.614;37.326;2023-03-14T12:43:32;6.9;;;3.4;;
51515;SDS011;37603;55.614;37.326;2023-03-14T12:49:31;4.6;;;3.2;;
51515;SDS011;37603;55.614;37.326;2023-03-14T12:55:32;5.5;;;3.2;;
51515;SDS011;37603;55.614;37.326;2023-03-14T13:01:28;3.8;;;3.0;;
51515;SDS011;37603;55.614;37.326;2023-03-14T13:07:29;4.6;;;3.2;;
51515;SDS011;37603;55.614;37.326;2023-03-14T13:13:26;4.8;;;3.0;;
51515;SDS011;37603;55.614;37.326;2023-03-14T13:19:25;4.1;;;3.2;;
51515;SDS011;37603;55.614;37.326;2023-03-14T13:25:24;4.2;;;3.2;;
51515;SDS011;37603;55.614;37.326;2023-03-14T13:31:23;4.7;;;3.5;;
51515;SDS011;37603;55.614;37.326;2023-03-14T13:37:23;5.4;;;3.1;;
51515;SDS011;37603;55.614;37.326;2023-03-14T13:43:21;6.3;;;3.2;;
51515;SDS011;37603;55.614;37.326;2023-03-14T13:49:21;5.3;;;3.3;;
51515;SDS011;37603;55.614;37.326;2023-03-14T13:55:18;5.0;;;3.1;;
51515;SDS011;37603;55.614;37.326;2023-03-14T14:01:18;5.4;;;3.1;;
51515;SDS011;37603;55.614;37.326;2023-03-14T14:07:16;5.1;;;3.1;;
51515;SDS011;37603;55.614;37.326;2023-03-14T14:13:16;4.1;;;2.9;;
51515;SDS011;37603;55.614;37.326;2023-03-14T14:19:14;4.9;;;3.3;;
51515;SDS011;37603;55.614;37.326;2023-03-14T14:25:13;5.4;;;3.1;;
51515;SDS011;37603;55.614;37.326;2023-03-14T14:31:20;4.9;;;3.3;;
51515;SDS011;37603;55.614;37.326;2023-03-14T14:37:17;5.1;;;3.1;;
51515;SDS011;37603;55.614;37.326;2023-03-14T14:43:10;4.7;;;3.2;;
51515;SDS011;37603;55.614;37.326;2023-03-14T14:49:09;4.2;;;2.9;;
51515;SDS011;37603;55.614;37.326;2023-03-14T14:55:11;4.7;;;3.2;;
51515;SDS011;37603;55.614;37.326;2023-03-14T15:01:07;5.3;;;3.3;;
51515;SDS011;37603;55.614;37.326;2023-03-14T15:07:07;4.5;;;3.3;;
51515;SDS011;37603;55.614;37.326;2023-03-14T15:13:04;3.8;;;2.8;;
51515;SDS011;37603;55.614;37.326;2023-03-14T15:19:08;5.6;;;3.3;;
51515;SDS011;37603;55.614;37.326;2023-03-14T15:25:02;4.2;;;3.1;;
51515;SDS011;37603;55.614;37.326;2023-03-14T15:31:01;4.1;;;3.1;;
51515;SDS011;37603;55.614;37.326;2023-03-14T15:37:00;5.4;;;3.3;;
51515;SDS011;37603;55.614;37.326;2023-03-14T15:48:58;4.6;;;3.5;;
51515;SDS011;37603;55.614;37.326;2023-03-14T15:54:57;6.0;;;3.6;;
51515;SDS011;37603;55.614;37.326;2023-03-14T16:06:55;4.3;;;3.3;;
51515;SDS011;37603;55.614;37.326;2023-03-14T16:12:54;6.3;;;3.6;;
51515;SDS011;37603;55.614;37.326;2023-03-14T16:18:52;4.7;;;3.5;;
51515;SDS011;37603;55.614;37.326;2023-03-14T16:24:51;6.1;;;3.7;;
51515;SDS011;37603;55.614;37.326;2023-03-14T16:30:50;5.6;;;3.8;;
51515;SDS011;37603;55.614;37.326;2023-03-14T16:36:49;5.3;;;3.6;;
51515;SDS011;37603;55.614;37.326;2023-03-14T16:42:48;7.7;;;4.4;;
51515;SDS011;37603;55.614;37.326;2023-03-14T16:48:47;6.2;;;4.3;;
51515;SDS011;37603;55.614;37.326;2023-03-14T16:54:46;6.6;;;4.3;;
51515;SDS011;37603;55.614;37.326;2023-03-14T17:00:45;6.3;;;4.1;;
51515;SDS011;37603;55.614;37.326;2023-03-14T17:06:44;6.8;;;3.8;;
51515;SDS011;37603;55.614;37.326;2023-03-14T17:12:43;6.2;;;3.8;;
51515;SDS011;37603;55.614;37.326;2023-03-14T17:18:41;5.7;;;3.7;;
51515;SDS011;37603;55.614;37.326;2023-03-14T17:24:40;6.0;;;3.9;;
51515;SDS011;37603;55.614;37.326;2023-03-14T17:30:39;5.2;;;3.5;;
51515;SDS011;37603;55.614;37.326;2023-03-14T17:36:38;4.8;;;3.5;;
51515;SDS011;37603;55.614;37.326;2023-03-14T17:42:37;5.3;;;3.2;;
51515;SDS011;37603;55.614;37.326;2023-03-14T17:48:36;4.4;;;3.1;;
51515;SDS011;37603;55.614;37.326;2023-03-14T17:54:35;4.1;;;2.9;;
51515;SDS011;37603;55.614;37.326;2023-03-14T18:00:33;5.2;;;3.3;;
51515;SDS011;37603;55.614;37.326;2023-03-14T18:06:32;5.8;;;3.0;;
51515;SDS011;37603;55.614;37.326;2023-03-14T18:12:31;3.4;;;2.7;;
51515;SDS011;37603;55.614;37.326;2023-03-14T18:18:30;3.8;;;2.6;;
51515;SDS011;37603;55.614;37.326;2023-03-14T18:24:29;4.1;;;2.9;;
51515;SDS011;37603;55.614;37.326;2023-03-14T18:30:28;4.8;;;2.8;;
51515;SDS011;37603;55.614;37.326;2023-03-14T18:36:27;4.3;;;2.6;;
51515;SDS011;37603;55.614;37.326;2023-03-14T18:42:26;3.3;;;2.4;;
51515;SDS011;37603;55.614;37.326;2023-03-14T18:48:24;4.3;;;2.5;;
51515;SDS011;37603;55.614;37.326;2023-03-14T18:54:23;3.3;;;2.2;;
51515;SDS011;37603;55.614;37.326;2023-03-14T19:00:22;3.9;;;2.3;;
51515;SDS011;37603;55.614;37.326;2023-03-14T19:06:21;4.2;;;2.5;;
51515;SDS011;37603;55.614;37.326;2023-03-14T19:12:20;3.6;;;2.4;;
51515;SDS011;37603;55.614;37.326;2023-03-14T19:18:19;5.0;;;2.4;;
51515;SDS011;37603;55.614;37.326;2023-03-14T19:24:18;3.1;;;2.3;;
51515;SDS011;37603;55.614;37.326;2023-03-14T19:30:17;4.2;;;2.2;;
51515;SDS011;37603;55.614;37.326;2023-03-14T19:36:19;3.6;;;2.0;;
51515;SDS011;37603;55.614;37.326;2023-03-14T19:42:14;3.4;;;1.9;;
51515;SDS011;37603;55.614;37.326;2023-03-14T19:48:14;3.1;;;2.0;;
51515;SDS011;37603;55.614;37.326;2023-03-14T19:54:13;3.0;;;1.7;;
51515;SDS011;37603;55.614;37.326;2023-03-14T20:00:11;2.6;;;1.8;;
51515;SDS011;37603;55.614;37.326;2023-03-14T20:06:10;2.9;;;1.7;;
51515;SDS011;37603;55.614;37.326;2023-03-14T20:12:09;2.4;;;1.8;;
51515;SDS011;37603;55.614;37.326;2023-03-14T20:18:08;2.9;;;1.7;;
51515;SDS011;37603;55.614;37.326;2023-03-14T20:24:07;2.8;;;1.7;;
51515;SDS011;37603;55.614;37.326;2023-03-14T20:30:06;3.3;;;1.7;;
51515;SDS011;37603;55.614;37.326;2023-03-14T20:36:04;2.8;;;1.7;;
51515;SDS011;37603;55.614;37.326;2023-03-14T20:42:03;3.1;;;1.9;;
51515;SDS011;37603;55.614;37.326;2023-03-14T20:48:02;1.9;;;1.5;;
51515;SDS011;37603;55.614;37.326;2023-03-14T20:54:01;2.5;;;1.7;;
51515;SDS011;37603;55.614;37.326;2023-03-14T21:00:00;3.9;;;1.5;;
51515;SDS011;37603;55.614;37.326;2023-03-14T21:05:59;4.0;;;1.8;;
51515;SDS011;37603;55.614;37.326;2023-03-14T21:11:58;3.6;;;1.8;;
51515;SDS011;37603;55.614;37.326;2023-03-14T21:17:56;2.0;;;1.6;;
51515;SDS011;37603;55.614;37.326;2023-03-14T21:23:55;2.5;;;1.9;;
51515;SDS011;37603;55.614;37.326;2023-03-14T21:29:54;3.3;;;1.8;;
51515;SDS011;37603;55.614;37.326;2023-03-14T21:35:53;2.9;;;1.7;;
51515;SDS011;37603;55.614;37.326;2023-03-14T21:41:52;3.5;;;1.9;;
51515;SDS011;37603;55.614;37.326;2023-03-14T21:47:51;3.7;;;1.7;;
51515;SDS011;37603;55.614;37.326;2023-03-14T21:53:50;2.9;;;2.0;;
51515;SDS011;37603;55.614;37.326;2023-03-14T21:59:49;3.0;;;1.7;;
51515;SDS011;37603;55.614;37.326;2023-03-14T22:05:48;3.7;;;2.2;;
51515;SDS011;37603;55.614;37.326;2023-03-14T22:11:46;3.8;;;2.0;;
51515;SDS011;37603;55.614;37.326;2023-03-14T22:17:45;2.7;;;1.6;;
51515;SDS011;37603;55.614;37.326;2023-03-14T22:23:44;3.4;;;1.9;;
51515;SDS011;37603;55.614;37.326;2023-03-14T22:35:45;2.3;;;1.7;;
51515;SDS011;37603;55.614;37.326;2023-03-14T22:41:41;3.2;;;1.8;;
51515;SDS011;37603;55.614;37.326;2023-03-14T22:47:40;2.2;;;1.7;;
51515;SDS011;37603;55.614;37.326;2023-03-14T22:53:38;3.2;;;1.8;;
51515;SDS011;37603;55.614;37.326;2023-03-14T22:59:38;3.5;;;2.2;;
51515;SDS011;37603;55.614;37.326;2023-03-14T23:05:36;2.6;;;1.9;;
51515;SDS011;37603;55.614;37.326;2023-03-14T23:11:35;4.5;;;2.2;;
51515;SDS011;37603;55.614;37.326;2023-03-14T23:17:34;4.3;;;2.3;;
51515;SDS011;37603;55.614;37.326;2023-03-14T23:23:33;3.5;;;2.3;;
51515;SDS011;37603;55.614;37.326;2023-03-14T23:29:32;3.8;;;2.4;;
51515;SDS011;37603;55.614;37.326;2023-03-14T23:35:31;3.9;;;2.5;;
51515;SDS011;37603;55.614;37.326;2023-03-14T23:41:29;4.4;;;2.8;;
51515;SDS011;37603;55.614;37.326;2023-03-14T23:53:28;3.7;;;2.8;;
51515;SDS011;37603;55.614;37.326;2023-03-14T23:59:26;3.9;;;2.8;;
